Time;durP1;ratioP1;P1;durP2;ratioP2;P2;SDS_P1;SDS_P2;PMS_P1;PMS_P2;Temp;Humidity;BMP_temperature;BMP_pressure;BME280_temperature;BME280_humidity;BME280_pressure;Samples;Min_cycle;Max_cycle;Signal;HPM_P1;HPM_P2
2023/02/15 05:01:43;;;;;;;4.78;4.65;;;2.40;99.90;;;;;;5318415;23;20233;-68
2023/02/15 05:04:10;;;;;;;5.70;5.22;;;2.30;99.90;;;;;;4948773;28;20592;-67
2023/02/15 05:06:37;;;;;;;8.70;5.78;;;2.30;99.90;;;;;;4951053;28;20216;-68
2023/02/15 05:09:04;;;;;;;14.13;4.10;;;2.40;99.90;;;;;;4948736;28;20217;-67
2023/02/15 05:11:30;;;;;;;7.57;6.53;;;2.40;99.90;;;;;;4949503;28;20248;-67
2023/02/15 05:13:57;;;;;;;5.07;4.68;;;2.50;99.90;;;;;;4951469;28;20208;-67
2023/02/15 05:16:25;;;;;;;5.93;5.43;;;2.60;99.90;;;;;;4951450;29;21097;-68
2023/02/15 05:18:53;;;;;;;4.55;4.28;;;2.60;99.90;;;;;;4949008;29;21103;-69
2023/02/15 05:21:20;;;;;;;4.80;4.13;;;2.60;99.90;;;;;;4950954;28;20239;-68
2023/02/15 05:23:46;;;;;;;7.60;4.35;;;2.60;99.90;;;;;;4950290;28;20213;-69
2023/02/15 05:29:01;;;;;;;2.85;2.70;;;2.50;99.90;;;;;;4951016;29;20272;-69
2023/02/15 05:31:28;;;;;;;3.75;3.55;;;2.50;99.90;;;;;;4951108;28;20681;-69
2023/02/15 05:33:56;;;;;;;12.82;6.05;;;2.50;99.90;;;;;;4949195;28;20582;-69
2023/02/15 05:36:23;;;;;;;6.53;6.15;;;2.50;99.90;;;;;;4949429;29;20215;-69
2023/02/15 05:38:50;;;;;;;4.60;4.22;;;2.40;99.90;;;;;;4941526;28;20201;-68
2023/02/15 05:41:17;;;;;;;5.97;5.43;;;2.40;99.90;;;;;;4945751;28;20335;-68
2023/02/15 05:43:43;;;;;;;6.22;5.63;;;2.40;99.90;;;;;;4950631;28;20228;-69
2023/02/15 05:46:11;;;;;;;4.90;4.50;;;2.40;99.90;;;;;;4949975;28;20539;-69
2023/02/15 05:48:38;;;;;;;14.30;5.10;;;2.30;99.90;;;;;;4950433;28;20232;-69
2023/02/15 05:51:08;;;;;;;8.32;7.57;;;2.30;99.90;;;;;;4950412;28;20588;-68
2023/02/15 05:53:36;;;;;;;4.70;3.97;;;2.30;99.90;;;;;;4946656;28;20209;-68
2023/02/15 05:56:04;;;;;;;5.43;3.92;;;2.40;99.90;;;;;;4949920;28;20553;-68
2023/02/15 05:58:33;;;;;;;6.85;6.28;;;2.40;99.90;;;;;;4949036;29;20205;-69
2023/02/15 06:01:00;;;;;;;4.53;4.20;;;2.40;99.90;;;;;;4950417;28;20823;-69
2023/02/15 06:03:28;;;;;;;5.65;5.18;;;2.30;99.90;;;;;;4949736;29;20634;-69
2023/02/15 06:05:55;;;;;;;4.25;4.15;;;2.20;99.90;;;;;;4950596;28;20217;-69
2023/02/15 06:08:23;;;;;;;3.13;2.58;;;2.10;99.90;;;;;;4948796;28;20221;-69
2023/02/15 06:10:49;;;;;;;6.50;3.53;;;2.10;99.90;;;;;;4948761;28;20225;-69
2023/02/15 06:13:16;;;;;;;9.30;6.47;;;2.00;99.90;;;;;;4950684;29;20220;-69
2023/02/15 06:15:43;;;;;;;7.55;6.25;;;2.10;99.90;;;;;;4951399;29;20247;-69
2023/02/15 06:18:09;;;;;;;7.78;6.05;;;2.20;99.90;;;;;;4952710;29;20225;-67
2023/02/15 06:20:36;;;;;;;7.50;4.57;;;2.30;99.90;;;;;;4952254;28;20237;-68
2023/02/15 06:23:03;;;;;;;6.70;3.83;;;2.30;99.90;;;;;;4953411;28;20220;-68
2023/02/15 06:25:31;;;;;;;9.45;7.03;;;2.30;99.90;;;;;;4951959;29;20209;-68
2023/02/15 06:27:57;;;;;;;4.13;2.03;;;2.20;99.90;;;;;;4953821;28;20224;-68
2023/02/15 06:30:24;;;;;;;6.93;5.60;;;2.30;99.90;;;;;;4952312;28;20213;-69
2023/02/15 06:32:51;;;;;;;7.63;7.25;;;2.20;99.90;;;;;;4954302;28;20216;-68
2023/02/15 06:35:18;;;;;;;7.03;6.15;;;2.30;99.90;;;;;;4954972;28;20213;-67
2023/02/15 06:37:46;;;;;;;8.90;5.55;;;2.30;99.90;;;;;;4949303;28;20202;-68
2023/02/15 06:40:13;;;;;;;5.07;4.97;;;2.30;99.90;;;;;;4946168;28;20220;-68
2023/02/15 06:42:42;;;;;;;13.27;3.97;;;2.30;99.90;;;;;;4949980;28;20232;-69
2023/02/15 06:45:09;;;;;;;12.85;6.72;;;2.30;99.90;;;;;;4951636;29;20217;-69
2023/02/15 06:47:36;;;;;;;9.77;4.72;;;2.40;99.90;;;;;;4951281;28;20239;-68
2023/02/15 06:50:03;;;;;;;10.88;5.43;;;2.40;99.90;;;;;;4952690;28;20216;-68
2023/02/15 06:52:30;;;;;;;10.32;6.38;;;2.40;99.90;;;;;;4951231;28;20225;-68
2023/02/15 06:54:57;;;;;;;6.47;3.53;;;2.30;99.90;;;;;;4948049;29;20233;-68
2023/02/15 06:57:24;;;;;;;6.28;4.22;;;2.40;99.90;;;;;;4949305;28;20232;-68
2023/02/15 06:59:52;;;;;;;1.80;1.77;;;2.40;99.90;;;;;;4949697;28;20213;-68
2023/02/15 07:02:19;;;;;;;10.65;6.43;;;2.40;99.90;;;;;;4943990;28;20280;-68
2023/02/15 07:04:46;;;;;;;1.67;1.58;;;2.30;99.90;;;;;;4949482;28;20644;-69
2023/02/15 07:07:13;;;;;;;3.83;3.40;;;2.10;99.90;;;;;;4949824;28;20678;-69
2023/02/15 07:09:40;;;;;;;11.95;7.18;;;2.10;99.90;;;;;;4952245;28;20243;-69
2023/02/15 07:14:53;;;;;;;4.57;4.35;;;2.00;99.90;;;;;;4949357;29;20307;-67
2023/02/15 07:17:20;;;;;;;7.30;3.85;;;2.00;99.90;;;;;;4949336;29;20213;-67
2023/02/15 07:19:46;;;;;;;8.77;3.60;;;2.10;99.90;;;;;;4951776;28;20602;-69
2023/02/15 07:22:13;;;;;;;1.95;1.90;;;2.00;99.90;;;;;;4955150;28;20236;-69
2023/02/15 07:24:40;;;;;;;8.05;6.25;;;2.00;99.90;;;;;;4952691;29;20632;-68
2023/02/15 07:27:07;;;;;;;7.43;4.82;;;2.10;99.90;;;;;;4953519;29;20209;-67
2023/02/15 07:29:34;;;;;;;5.78;3.00;;;2.20;99.90;;;;;;4952670;29;20213;-67
2023/02/15 07:32:02;;;;;;;4.05;3.70;;;2.10;99.90;;;;;;4953735;28;20226;-68
2023/02/15 07:34:29;;;;;;;28.65;15.77;;;2.00;99.90;;;;;;4951091;29;20220;-67
2023/02/15 07:36:56;;;;;;;36.00;16.00;;;2.00;99.90;;;;;;4953674;28;20213;-67
2023/02/15 07:39:22;;;;;;;24.42;7.85;;;2.10;99.90;;;;;;4952092;28;20213;-67
2023/02/15 07:41:49;;;;;;;5.80;5.32;;;2.20;99.90;;;;;;4951124;28;20221;-67
2023/02/15 07:44:16;;;;;;;5.85;5.32;;;2.30;99.90;;;;;;4952395;28;20219;-67
2023/02/15 07:46:43;;;;;;;36.15;14.32;;;2.30;99.90;;;;;;4948277;28;20323;-67
2023/02/15 07:49:11;;;;;;;17.63;8.48;;;2.30;99.90;;;;;;4953499;28;20224;-67
2023/02/15 07:51:37;;;;;;;12.27;8.82;;;2.40;99.90;;;;;;4955511;28;20926;-67
2023/02/15 07:54:04;;;;;;;5.80;5.35;;;2.40;99.90;;;;;;4952754;29;20209;-67
2023/02/15 07:56:32;;;;;;;8.68;6.68;;;2.50;99.90;;;;;;4953670;28;20281;-68
2023/02/15 07:59:02;;;;;;;8.05;5.75;;;2.50;99.90;;;;;;4955169;28;20201;-67
2023/02/15 08:01:32;;;;;;;11.63;9.50;;;2.50;99.90;;;;;;4950444;29;20240;-67
2023/02/15 08:03:59;;;;;;;9.65;5.72;;;2.60;99.90;;;;;;4955223;28;20380;-67
2023/02/15 08:06:30;;;;;;;7.57;6.80;;;2.70;99.90;;;;;;4950410;28;20213;-69
2023/02/15 08:08:57;;;;;;;12.40;6.82;;;2.80;99.90;;;;;;4953889;28;20253;-67
2023/02/15 08:11:33;;;;;;;8.35;6.47;;;2.80;99.90;;;;;;4953714;28;20237;-68
2023/02/15 08:14:02;;;;;;;4.88;4.53;;;2.80;99.90;;;;;;4954003;29;20236;-66
2023/02/15 08:16:33;;;;;;;13.68;9.98;;;2.90;99.90;;;;;;4953789;29;20213;-67
2023/02/15 08:19:01;;;;;;;11.52;5.22;;;2.90;99.90;;;;;;4952128;28;20213;-67
2023/02/15 08:21:30;;;;;;;15.13;10.75;;;3.00;99.90;;;;;;4947753;29;20293;-66
2023/02/15 08:23:57;;;;;;;7.80;5.20;;;3.00;99.90;;;;;;4952838;28;20202;-67
2023/02/15 08:26:24;;;;;;;8.13;6.22;;;3.10;99.90;;;;;;4954800;28;20214;-67
2023/02/15 08:28:52;;;;;;;8.77;5.45;;;3.10;99.90;;;;;;4951588;28;20234;-67
2023/02/15 08:31:19;;;;;;;7.97;4.85;;;3.20;99.90;;;;;;4951926;28;20237;-67
2023/02/15 08:33:47;;;;;;;9.48;6.63;;;3.30;99.90;;;;;;4949840;28;20216;-67
2023/02/15 08:36:16;;;;;;;6.15;4.95;;;3.30;99.90;;;;;;4950133;29;20210;-67
2023/02/15 08:38:45;;;;;;;9.07;6.13;;;3.30;99.90;;;;;;4947696;28;20209;-67
2023/02/15 08:41:14;;;;;;;8.45;7.47;;;3.30;99.90;;;;;;4949149;28;20234;-67
2023/02/15 08:43:42;;;;;;;15.88;7.47;;;3.40;99.90;;;;;;4952841;28;20690;-67
2023/02/15 08:46:09;;;;;;;6.43;5.82;;;3.30;99.90;;;;;;4950953;28;20230;-67
2023/02/15 08:48:36;;;;;;;9.35;6.60;;;3.40;99.90;;;;;;4949480;29;20591;-66
2023/02/15 08:51:10;;;;;;;6.00;5.60;;;3.50;99.90;;;;;;4951290;28;20222;-67
2023/02/15 08:53:37;;;;;;;18.92;7.32;;;3.60;99.90;;;;;;4946950;29;20209;-67
2023/02/15 08:56:06;;;;;;;4.88;4.57;;;3.60;99.90;;;;;;4949863;28;20210;-67
2023/02/15 08:58:33;;;;;;;8.25;6.68;;;3.60;99.90;;;;;;4952228;28;20842;-67
2023/02/15 09:01:01;;;;;;;7.38;4.53;;;3.70;99.90;;;;;;4952509;28;20233;-68
2023/02/15 09:03:29;;;;;;;1.85;1.85;;;3.60;99.90;;;;;;4951915;28;20616;-68
2023/02/15 09:05:59;;;;;;;7.10;6.43;;;3.50;99.90;;;;;;4944269;29;20245;-68
2023/02/15 09:08:27;;;;;;;9.77;5.38;;;3.50;99.90;;;;;;4952223;29;20821;-68
2023/02/15 09:10:54;;;;;;;6.13;5.53;;;3.60;99.90;;;;;;4949014;28;21995;-66
2023/02/15 09:13:22;;;;;;;6.63;5.10;;;3.70;99.90;;;;;;4951441;28;20218;-65
2023/02/15 09:15:49;;;;;;;22.10;9.27;;;3.80;99.90;;;;;;4952882;29;20543;-67
2023/02/15 09:18:16;;;;;;;6.22;5.82;;;3.70;99.90;;;;;;4946146;28;20210;-66
2023/02/15 09:20:44;;;;;;;9.32;4.75;;;3.70;99.90;;;;;;4949298;29;20321;-67
2023/02/15 09:23:11;;;;;;;6.18;5.70;;;3.80;99.90;;;;;;4949895;29;20214;-67
2023/02/15 09:25:37;;;;;;;5.63;5.13;;;3.90;99.90;;;;;;4952421;28;20218;-67
2023/02/15 09:28:04;;;;;;;4.25;3.20;;;4.00;99.90;;;;;;4947306;28;20237;-66
2023/02/15 09:30:32;;;;;;;7.72;6.28;;;4.10;99.90;;;;;;4950830;28;20268;-66
2023/02/15 09:32:59;;;;;;;12.00;7.78;;;3.90;99.90;;;;;;4949582;28;20205;-67
2023/02/15 09:35:26;;;;;;;5.80;4.13;;;3.90;99.90;;;;;;4950454;29;20215;-68
2023/02/15 09:37:52;;;;;;;13.18;7.43;;;3.90;99.90;;;;;;4949945;28;20268;-67
2023/02/15 09:40:19;;;;;;;9.63;6.40;;;4.00;99.90;;;;;;4950833;29;20225;-67
2023/02/15 09:43:05;;;;;;;6.22;4.70;;;4.00;99.90;;;;;;4949114;28;20213;-69
2023/02/15 09:45:51;;;;;;;5.45;3.42;;;4.20;99.90;;;;;;4948029;28;20216;-66
2023/02/15 09:48:41;;;;;;;5.85;5.35;;;4.30;99.90;;;;;;4947692;28;20240;-68
2023/02/15 09:51:32;;;;;;;6.45;5.85;;;4.40;99.90;;;;;;4948654;29;20236;-67
2023/02/15 09:54:24;;;;;;;6.13;5.72;;;4.40;99.90;;;;;;4947687;28;20240;-68
2023/02/15 09:56:56;;;;;;;6.38;5.53;;;4.50;99.90;;;;;;4946535;28;20232;-68
2023/02/15 09:59:30;;;;;;;6.57;5.20;;;4.50;99.90;;;;;;4949734;28;20203;-70
2023/02/15 10:02:15;;;;;;;25.35;9.90;;;4.60;99.90;;;;;;4951219;28;20234;-70
2023/02/15 10:04:55;;;;;;;1.83;1.83;;;4.60;99.90;;;;;;4952613;28;20215;-69
2023/02/15 10:07:40;;;;;;;10.30;4.78;;;4.50;99.90;;;;;;4951471;28;20758;-69
2023/02/15 10:10:20;;;;;;;10.35;6.57;;;4.40;99.90;;;;;;4944690;29;20219;-67
2023/02/15 10:13:01;;;;;;;9.60;7.55;;;4.70;99.90;;;;;;4950774;28;20214;-68
2023/02/15 10:15:43;;;;;;;9.15;6.78;;;4.80;99.90;;;;;;4952078;29;20663;-68
2023/02/15 10:18:35;;;;;;;4.47;3.65;;;4.90;99.90;;;;;;4938849;29;20313;-67
2023/02/15 10:21:09;;;;;;;6.20;5.80;;;4.70;99.90;;;;;;4952727;28;20230;-71
2023/02/15 10:23:48;;;;;;;6.20;5.70;;;4.50;99.90;;;;;;4952315;28;20213;-67
2023/02/15 10:26:19;;;;;;;5.20;4.70;;;4.30;99.90;;;;;;4947960;28;20209;-68
2023/02/15 10:28:49;;;;;;;5.82;3.92;;;4.30;99.90;;;;;;4949943;28;20217;-68
2023/02/15 10:31:24;;;;;;;6.90;6.28;;;4.40;99.90;;;;;;4941611;29;20222;-67
2023/02/15 10:34:03;;;;;;;8.35;6.38;;;4.40;99.90;;;;;;4952177;28;20276;-68
2023/02/15 10:36:42;;;;;;;5.07;4.60;;;4.60;99.90;;;;;;4951791;29;20214;-68
2023/02/15 10:39:18;;;;;;;10.73;8.00;;;4.80;99.90;;;;;;4949887;28;20699;-69
2023/02/15 10:41:55;;;;;;;4.35;3.80;;;4.90;99.90;;;;;;4948682;28;21030;-68
2023/02/15 10:44:39;;;;;;;7.63;5.35;;;5.00;99.90;;;;;;4951169;28;20202;-67
2023/02/15 10:47:28;;;;;;;5.50;5.18;;;5.00;99.90;;;;;;4951627;29;20203;-67
2023/02/15 10:50:24;;;;;;;5.75;4.88;;;4.90;99.90;;;;;;4932649;29;20236;-67
2023/02/15 10:53:04;;;;;;;14.05;8.63;;;5.10;99.90;;;;;;4943780;29;20221;-67
2023/02/15 10:55:41;;;;;;;6.43;5.13;;;5.30;99.90;;;;;;4949307;29;20228;-68
2023/02/15 10:58:17;;;;;;;9.55;6.43;;;5.40;99.90;;;;;;4950082;28;20695;-68
2023/02/15 11:00:47;;;;;;;11.00;5.80;;;5.60;99.90;;;;;;4954945;28;20579;-69
2023/02/15 11:03:40;;;;;;;6.45;5.50;;;5.60;99.90;;;;;;4954564;28;20210;-68
2023/02/15 11:06:11;;;;;;;4.85;4.05;;;5.60;99.90;;;;;;4955039;29;20206;-68
2023/02/15 11:08:42;;;;;;;6.93;5.63;;;5.70;99.90;;;;;;4954023;28;20226;-68
2023/02/15 11:11:13;;;;;;;6.60;5.10;;;5.60;99.90;;;;;;4947399;28;20355;-67
2023/02/15 11:13:45;;;;;;;8.05;5.30;;;5.50;99.90;;;;;;4953854;29;20207;-67
2023/02/15 11:16:16;;;;;;;7.30;5.35;;;5.50;99.90;;;;;;4955451;29;20210;-67
2023/02/15 11:18:46;;;;;;;12.43;9.13;;;5.50;99.90;;;;;;4953731;29;20213;-68
2023/02/15 11:21:21;;;;;;;7.43;5.30;;;5.40;99.90;;;;;;4952189;28;20344;-68
2023/02/15 11:23:48;;;;;;;4.47;3.60;;;5.40;99.90;;;;;;4953285;28;20206;-66
2023/02/15 11:26:20;;;;;;;4.00;3.72;;;5.40;99.90;;;;;;4953534;29;20214;-66
2023/02/15 11:28:51;;;;;;;6.18;5.65;;;5.40;99.90;;;;;;4954243;29;20241;-67
2023/02/15 11:31:21;;;;;;;6.80;5.70;;;5.50;99.90;;;;;;4955180;28;20234;-66
2023/02/15 11:33:53;;;;;;;6.03;5.13;;;5.60;99.90;;;;;;4952899;28;20217;-68
2023/02/15 11:36:25;;;;;;;11.45;7.25;;;5.70;99.90;;;;;;4954702;28;20232;-68
2023/02/15 11:38:57;;;;;;;10.88;7.78;;;5.70;99.90;;;;;;4952107;28;20202;-67
2023/02/15 11:41:28;;;;;;;5.85;5.07;;;5.70;99.90;;;;;;4950737;29;20246;-67
2023/02/15 11:44:00;;;;;;;8.63;5.10;;;5.80;99.90;;;;;;4952908;28;20214;-67
2023/02/15 11:46:28;;;;;;;9.00;4.40;;;5.80;99.90;;;;;;4953623;29;20234;-67
2023/02/15 11:48:55;;;;;;;10.13;7.43;;;5.80;99.90;;;;;;4952995;28;20227;-67
2023/02/15 11:51:24;;;;;;;6.78;6.05;;;5.90;99.90;;;;;;4953807;28;20226;-67
2023/02/15 11:53:51;;;;;;;8.10;6.25;;;6.00;99.90;;;;;;4955222;28;20212;-66
2023/02/15 11:56:21;;;;;;;7.97;5.40;;;6.10;99.90;;;;;;4953146;28;20207;-66
2023/02/15 11:58:51;;;;;;;6.22;5.68;;;6.20;99.90;;;;;;4954885;28;20206;-68
2023/02/15 12:01:24;;;;;;;6.18;4.65;;;6.20;99.90;;;;;;4954802;28;20253;-67
2023/02/15 12:03:53;;;;;;;11.02;6.57;;;6.20;99.90;;;;;;4952948;28;20211;-67
2023/02/15 12:06:27;;;;;;;7.35;4.15;;;6.20;99.90;;;;;;4953838;28;20222;-67
2023/02/15 12:09:01;;;;;;;8.23;7.50;;;6.30;99.90;;;;;;4954011;29;20222;-67
2023/02/15 12:11:33;;;;;;;11.63;9.82;;;6.40;99.90;;;;;;4949243;29;20233;-66
2023/02/15 12:14:02;;;;;;;11.82;6.45;;;6.50;99.90;;;;;;4953698;28;20214;-68
2023/02/15 12:16:32;;;;;;;8.23;6.60;;;6.60;99.90;;;;;;4954194;28;20676;-67
2023/02/15 12:19:01;;;;;;;11.18;7.03;;;6.60;99.90;;;;;;4951771;28;20221;-68
2023/02/15 12:21:33;;;;;;;11.88;6.80;;;6.70;99.90;;;;;;4953381;28;20239;-67
2023/02/15 12:24:04;;;;;;;11.88;7.97;;;6.80;99.90;;;;;;4952863;28;20683;-68
2023/02/15 12:26:33;;;;;;;8.50;4.90;;;6.80;99.90;;;;;;4952540;28;20198;-67
2023/02/15 12:29:02;;;;;;;7.70;6.20;;;6.90;99.90;;;;;;4953358;28;20238;-66
2023/02/15 12:31:39;;;;;;;5.85;3.90;;;6.90;99.90;;;;;;4949667;28;20719;-66
2023/02/15 12:34:12;;;;;;;11.02;5.97;;;7.00;99.90;;;;;;4947178;28;20303;-67
2023/02/15 12:36:46;;;;;;;6.75;6.13;;;7.10;99.90;;;;;;4954398;29;20208;-68
2023/02/15 12:39:20;;;;;;;6.85;6.05;;;7.20;99.90;;;;;;4952750;28;20586;-68
2023/02/15 12:41:57;;;;;;;6.35;5.47;;;7.30;99.90;;;;;;4953904;28;20233;-67
2023/02/15 12:44:26;;;;;;;9.65;7.25;;;7.30;99.90;;;;;;4952644;29;20827;-68
2023/02/15 12:47:02;;;;;;;8.60;7.75;;;7.30;99.90;;;;;;4953165;28;20218;-68
2023/02/15 12:49:30;;;;;;;10.18;7.43;;;7.40;99.90;;;;;;4953586;28;20223;-67
2023/02/15 12:51:59;;;;;;;7.88;7.07;;;7.50;99.90;;;;;;4953033;28;20238;-68
2023/02/15 12:54:40;;;;;;;9.60;6.70;;;7.50;99.90;;;;;;4954062;29;20219;-67
2023/02/15 12:57:24;;;;;;;10.23;6.55;;;7.60;99.90;;;;;;4938865;29;20227;-66
2023/02/15 12:59:53;;;;;;;11.48;5.93;;;7.60;99.90;;;;;;4954443;29;20342;-66
2023/02/15 13:02:27;;;;;;;13.95;8.35;;;7.70;99.90;;;;;;4954150;28;20305;-69
2023/02/15 13:04:56;;;;;;;9.45;7.22;;;7.80;99.90;;;;;;4945588;29;20230;-69
2023/02/15 13:07:26;;;;;;;17.05;8.82;;;7.80;99.90;;;;;;4962231;28;20326;-68
2023/02/15 13:09:52;;;;;;;8.90;7.50;;;7.90;99.90;;;;;;4957846;29;20230;-67
2023/02/15 13:12:23;;;;;;;16.27;9.25;;;8.00;99.90;;;;;;4957967;28;20231;-70
2023/02/15 13:14:54;;;;;;;10.50;7.75;;;8.00;99.90;;;;;;4957116;29;20217;-66
2023/02/15 13:17:29;;;;;;;7.90;5.05;;;8.10;99.90;;;;;;4962919;28;20231;-67
2023/02/15 13:19:58;;;;;;;8.40;6.63;;;8.10;99.90;;;;;;4960532;28;20245;-68
2023/02/15 13:22:33;;;;;;;4.53;3.47;;;8.10;99.90;;;;;;4966678;28;20505;-68
2023/02/15 13:25:04;;;;;;;9.18;6.55;;;8.10;99.90;;;;;;4963325;28;20206;-67
2023/02/15 13:27:36;;;;;;;8.63;6.55;;;8.10;99.90;;;;;;4958457;29;20218;-68
2023/02/15 13:30:11;;;;;;;4.85;3.92;;;8.20;99.90;;;;;;4959401;28;20669;-67
2023/02/15 13:32:42;;;;;;;10.30;8.27;;;8.20;99.90;;;;;;4948421;28;20233;-68
2023/02/15 13:35:15;;;;;;;10.15;8.73;;;8.30;99.90;;;;;;4943429;29;20207;-68
2023/02/15 13:38:06;;;;;;;10.00;7.07;;;8.30;99.90;;;;;;4951673;28;20211;-68
2023/02/15 13:40:37;;;;;;;12.90;8.98;;;8.40;99.90;;;;;;4944068;28;20212;-68
2023/02/15 13:43:14;;;;;;;10.02;8.50;;;8.50;99.90;;;;;;4951858;29;20218;-68
2023/02/15 13:46:04;;;;;;;11.57;6.30;;;8.60;99.90;;;;;;4952479;29;20220;-68
2023/02/15 13:48:42;;;;;;;7.80;6.38;;;8.60;99.90;;;;;;4948205;28;20203;-68
2023/02/15 13:51:14;;;;;;;8.20;4.68;;;8.70;99.90;;;;;;4933026;29;20258;-66
2023/02/15 13:53:58;;;;;;;7.07;6.38;;;8.70;99.90;;;;;;4932152;29;20212;-66
2023/02/15 13:56:33;;;;;;;5.55;4.93;;;8.70;99.90;;;;;;4932271;29;20673;-66
2023/02/15 13:59:19;;;;;;;10.98;5.82;;;8.80;99.90;;;;;;4932850;29;20218;-67
2023/02/15 14:01:52;;;;;;;8.68;6.03;;;8.80;99.90;;;;;;4945876;28;20697;-67
2023/02/15 14:04:57;;;;;;;8.60;6.53;;;8.80;99.90;;;;;;4950875;28;20638;-67
2023/02/15 14:07:37;;;;;;;6.53;5.55;;;8.90;99.90;;;;;;4910721;29;20330;-67
2023/02/15 14:10:26;;;;;;;12.13;6.47;;;8.90;99.90;;;;;;4946355;28;20226;-67
2023/02/15 14:13:21;;;;;;;6.18;5.60;;;8.90;99.90;;;;;;4948340;28;20302;-67
2023/02/15 14:15:51;;;;;;;9.23;6.10;;;8.80;99.90;;;;;;4949120;29;20230;-67
2023/02/15 14:18:28;;;;;;;7.63;5.18;;;8.80;99.90;;;;;;4950362;28;20222;-67
2023/02/15 14:21:07;;;;;;;15.95;6.90;;;8.70;99.90;;;;;;4948600;28;20235;-68
2023/02/15 14:23:44;;;;;;;9.52;5.20;;;8.70;99.90;;;;;;4951600;29;20203;-68
2023/02/15 14:26:22;;;;;;;8.05;7.13;;;8.70;99.90;;;;;;4948544;29;20219;-68
2023/02/15 14:28:57;;;;;;;5.63;5.13;;;8.60;99.90;;;;;;4947216;28;20654;-68
2023/02/15 14:31:28;;;;;;;4.22;3.92;;;8.60;99.90;;;;;;4951338;28;20242;-66
2023/02/15 14:33:57;;;;;;;21.00;8.18;;;8.60;99.90;;;;;;4951174;29;20590;-66
2023/02/15 14:36:26;;;;;;;10.30;7.55;;;8.60;99.90;;;;;;4949451;29;20211;-67
2023/02/15 14:39:02;;;;;;;13.52;10.55;;;8.70;99.90;;;;;;4950909;28;20555;-68
2023/02/15 14:41:37;;;;;;;5.88;4.18;;;8.70;99.90;;;;;;4951914;28;20227;-68
2023/02/15 14:44:12;;;;;;;5.78;4.13;;;8.70;99.90;;;;;;4948572;29;20315;-69
2023/02/15 14:46:47;;;;;;;6.07;5.57;;;8.70;99.90;;;;;;4952199;29;20214;-68
2023/02/15 14:49:17;;;;;;;10.48;6.10;;;8.70;99.90;;;;;;4950904;29;20215;-68
2023/02/15 14:51:58;;;;;;;8.50;6.50;;;8.70;99.90;;;;;;4949134;28;20240;-68
2023/02/15 14:54:54;;;;;;;5.70;5.20;;;8.60;99.90;;;;;;4947967;28;20216;-68
2023/02/15 14:57:29;;;;;;;10.45;7.18;;;8.60;99.90;;;;;;4945869;29;20235;-67
2023/02/15 14:59:58;;;;;;;4.97;4.40;;;8.60;99.90;;;;;;4951860;29;20594;-68
2023/02/15 15:02:31;;;;;;;6.13;5.45;;;8.60;99.90;;;;;;4949803;28;20523;-68
2023/02/15 15:05:02;;;;;;;11.63;8.13;;;8.60;99.90;;;;;;4951877;29;20247;-68
2023/02/15 15:07:38;;;;;;;7.15;5.45;;;8.50;99.90;;;;;;4965095;23;20236;-70
2023/02/15 15:10:15;;;;;;;14.48;7.70;;;8.50;99.90;;;;;;4913506;29;20264;-69
2023/02/15 15:12:44;;;;;;;8.90;7.07;;;8.50;99.90;;;;;;4913333;29;20295;-68
2023/02/15 15:15:33;;;;;;;11.68;8.70;;;8.40;99.90;;;;;;4913763;29;20683;-69
2023/02/15 15:18:01;;;;;;;11.20;6.82;;;8.40;99.90;;;;;;4912965;29;20312;-70
2023/02/15 15:20:45;;;;;;;7.07;6.55;;;8.40;99.90;;;;;;4913478;29;20206;-69
2023/02/15 15:23:39;;;;;;;20.83;6.95;;;8.40;99.90;;;;;;4917509;29;20216;-69
2023/02/15 15:26:27;;;;;;;11.13;6.93;;;8.30;99.90;;;;;;4922928;29;20649;-69
2023/02/15 15:28:58;;;;;;;12.13;7.15;;;8.30;99.90;;;;;;4911667;29;20226;-69
2023/02/15 15:31:34;;;;;;;8.70;7.45;;;8.30;99.90;;;;;;4908114;29;20235;-69
2023/02/15 15:34:19;;;;;;;8.65;6.35;;;8.30;99.90;;;;;;4912884;29;20577;-69
2023/02/15 15:37:38;;;;;;;5.43;5.13;;;8.20;99.90;;;;;;4903120;29;20221;-69
2023/02/15 15:40:37;;;;;;;8.35;5.70;;;8.20;99.90;;;;;;4912024;29;20221;-68
2023/02/15 15:43:36;;;;;;;14.48;9.70;;;8.20;99.90;;;;;;4914462;29;20257;-68
2023/02/15 15:46:20;;;;;;;10.38;8.48;;;8.20;99.90;;;;;;4895500;29;20230;-67
2023/02/15 15:48:47;;;;;;;15.50;7.97;;;8.20;99.90;;;;;;4913223;29;20777;-69
2023/02/15 15:51:20;;;;;;;10.88;6.75;;;8.10;99.90;;;;;;4913135;29;20760;-68
2023/02/15 15:53:52;;;;;;;11.38;7.22;;;8.10;99.90;;;;;;4910845;29;20578;-69
2023/02/15 15:56:22;;;;;;;5.70;4.68;;;8.10;99.90;;;;;;4915049;29;20301;-69
2023/02/15 15:58:52;;;;;;;5.70;5.15;;;8.10;99.90;;;;;;4915744;29;20239;-69
2023/02/15 16:01:26;;;;;;;8.13;6.32;;;8.00;99.90;;;;;;4916196;29;20201;-67
2023/02/15 16:03:56;;;;;;;11.98;5.95;;;7.90;99.90;;;;;;4912924;29;20208;-69
2023/02/15 16:06:35;;;;;;;11.75;5.63;;;7.90;99.90;;;;;;4914542;29;20214;-69
2023/02/15 16:09:13;;;;;;;7.82;7.00;;;7.80;99.90;;;;;;4914475;29;20239;-69
2023/02/15 16:11:40;;;;;;;13.27;8.40;;;7.80;99.90;;;;;;4905979;29;20229;-69
2023/02/15 16:14:13;;;;;;;10.23;8.25;;;7.80;99.90;;;;;;4907402;29;20210;-69
2023/02/15 16:16:42;;;;;;;8.25;7.47;;;7.70;99.90;;;;;;4915757;29;20251;-69
2023/02/15 16:19:19;;;;;;;9.10;6.60;;;7.70;99.90;;;;;;4916180;29;20228;-69
2023/02/15 16:21:49;;;;;;;14.15;7.65;;;7.60;99.90;;;;;;4915475;29;20259;-70
2023/02/15 16:24:53;;;;;;;5.82;5.40;;;7.60;99.90;;;;;;4914847;29;20268;-69
2023/02/15 16:27:34;;;;;;;9.85;6.47;;;7.50;99.90;;;;;;4902816;29;20725;-69
2023/02/15 16:30:21;;;;;;;13.32;8.48;;;7.40;99.90;;;;;;4916645;29;20240;-69
2023/02/15 16:32:50;;;;;;;8.32;6.28;;;7.40;99.90;;;;;;4912679;29;20211;-69
2023/02/15 16:35:19;;;;;;;5.47;4.70;;;7.30;99.90;;;;;;4914308;29;20239;-68
2023/02/15 16:37:46;;;;;;;6.68;5.05;;;7.30;99.90;;;;;;4914833;29;20237;-68
2023/02/15 16:40:39;;;;;;;15.35;6.53;;;7.20;99.90;;;;;;4913644;29;20240;-68
2023/02/15 16:43:12;;;;;;;10.07;7.03;;;7.20;99.90;;;;;;4913740;29;20248;-68
2023/02/15 16:45:39;;;;;;;16.98;7.55;;;7.10;99.90;;;;;;4914191;29;20216;-69
2023/02/15 16:48:13;;;;;;;8.73;7.72;;;7.10;99.90;;;;;;4915133;29;20235;-69
2023/02/15 16:50:41;;;;;;;15.73;8.82;;;7.00;99.90;;;;;;4915939;29;20231;-69
2023/02/15 16:53:17;;;;;;;6.55;4.60;;;7.00;99.90;;;;;;4913267;29;20319;-68
2023/02/15 16:55:48;;;;;;;10.95;6.75;;;6.90;99.90;;;;;;4914555;29;20211;-69
2023/02/15 16:58:18;;;;;;;15.07;7.82;;;6.90;99.90;;;;;;4915291;29;20227;-69
2023/02/15 17:00:45;;;;;;;6.80;6.15;;;6.80;99.90;;;;;;4915426;29;20308;-68
2023/02/15 17:03:25;;;;;;;7.97;6.95;;;6.80;99.90;;;;;;4915189;29;20213;-69
2023/02/15 17:05:53;;;;;;;13.18;7.68;;;6.80;99.90;;;;;;4912672;29;20218;-68
2023/02/15 17:08:26;;;;;;;9.48;6.70;;;6.70;99.90;;;;;;4906783;29;20256;-68
2023/02/15 17:11:06;;;;;;;6.25;4.90;;;6.70;99.90;;;;;;4913465;29;20660;-68
2023/02/15 17:13:33;;;;;;;7.25;6.18;;;6.70;99.90;;;;;;4913934;29;20227;-69
2023/02/15 17:16:26;;;;;;;12.90;9.57;;;6.60;99.90;;;;;;4914429;29;20223;-69
2023/02/15 17:18:58;;;;;;;7.78;6.97;;;6.50;99.90;;;;;;4901182;29;20251;-69
2023/02/15 17:21:28;;;;;;;7.00;6.40;;;6.50;99.90;;;;;;4914007;29;20280;-67
2023/02/15 17:23:59;;;;;;;10.30;8.32;;;6.50;99.90;;;;;;4913435;29;20231;-69
2023/02/15 17:26:29;;;;;;;13.82;7.38;;;6.40;99.90;;;;;;4911208;29;20299;-69
2023/02/15 17:28:58;;;;;;;9.32;5.80;;;6.40;99.90;;;;;;4913742;29;20231;-69
2023/02/15 17:31:28;;;;;;;14.85;8.07;;;6.40;99.90;;;;;;4906128;29;20244;-67
2023/02/15 17:33:58;;;;;;;6.32;5.60;;;6.30;99.90;;;;;;4912857;29;20267;-67
2023/02/15 17:36:28;;;;;;;16.98;8.65;;;6.30;99.90;;;;;;4913494;29;20215;-69
2023/02/15 17:39:06;;;;;;;9.48;7.85;;;6.20;99.90;;;;;;4911665;29;20733;-69
2023/02/15 17:41:34;;;;;;;9.88;8.27;;;6.10;99.90;;;;;;4913408;29;20207;-69
2023/02/15 17:44:03;;;;;;;9.77;8.60;;;6.10;99.90;;;;;;4912236;29;20239;-69
2023/02/15 17:46:34;;;;;;;12.63;7.28;;;6.00;99.90;;;;;;4913998;29;20259;-68
2023/02/15 17:49:02;;;;;;;7.80;5.38;;;6.00;99.90;;;;;;4913183;29;20242;-69
2023/02/15 17:51:30;;;;;;;11.95;9.27;;;6.00;99.90;;;;;;4912298;29;20229;-69
2023/02/15 17:56:41;;;;;;;10.45;7.45;;;6.10;99.90;;;;;;4913229;29;20286;-69
2023/02/15 17:59:10;;;;;;;9.50;7.60;;;6.10;99.90;;;;;;4910943;29;20231;-69
2023/02/15 18:12:41;;;;;;;9.43;6.93;;;6.00;99.90;;;;;;4912879;29;20854;-69
2023/02/15 18:15:10;;;;;;;11.73;8.20;;;6.10;99.90;;;;;;4909318;29;20204;-69
2023/02/15 18:17:40;;;;;;;11.32;6.95;;;6.00;99.90;;;;;;4911418;29;20610;-69
2023/02/15 18:20:18;;;;;;;8.45;5.80;;;6.00;99.90;;;;;;4912277;29;20216;-69
2023/02/15 18:22:46;;;;;;;19.08;9.80;;;6.00;99.90;;;;;;4911353;29;20208;-69
2023/02/15 18:25:14;;;;;;;7.55;7.03;;;6.00;99.90;;;;;;4912759;29;20208;-69
2023/02/15 18:27:41;;;;;;;28.58;11.43;;;6.00;99.90;;;;;;4912066;29;20231;-69
2023/02/15 18:30:13;;;;;;;7.65;6.50;;;6.00;99.90;;;;;;4906299;29;20669;-69
2023/02/15 18:32:40;;;;;;;8.10;6.57;;;5.90;99.90;;;;;;4912909;29;20232;-69
2023/02/15 18:35:15;;;;;;;7.55;6.13;;;6.00;99.90;;;;;;4913679;29;20218;-69
2023/02/15 18:37:42;;;;;;;10.07;6.68;;;5.90;99.90;;;;;;4910271;29;20238;-69
2023/02/15 18:40:16;;;;;;;12.13;7.00;;;5.90;99.90;;;;;;4911787;29;20220;-70